createdAt,value
2019-03-28T00:00:06.774Z,0.00
2019-03-28T00:01:06.698Z,0.00
2019-03-28T00:02:06.598Z,0.00
2019-03-28T00:03:06.524Z,0.00
2019-03-28T00:04:06.435Z,0.00
2019-03-28T00:05:06.363Z,0.00
2019-03-28T00:06:06.273Z,0.00
2019-03-28T00:07:06.187Z,0.00
2019-03-28T00:08:06.098Z,0.00
2019-03-28T00:09:07.746Z,0.00
2019-03-28T00:10:05.939Z,0.00
2019-03-28T00:11:05.849Z,0.00
2019-03-28T00:12:05.763Z,0.00
2019-03-28T00:13:05.687Z,0.00
2019-03-28T00:14:05.600Z,0.00
2019-03-28T00:15:05.511Z,0.00
2019-03-28T00:16:05.436Z,0.00
2019-03-28T00:17:05.354Z,0.00
2019-03-28T00:18:05.266Z,0.00
2019-03-28T00:19:05.190Z,0.00
2019-03-28T00:20:05.100Z,0.00
2019-03-28T00:21:05.012Z,0.00
2019-03-28T00:22:05.767Z,0.00
2019-03-28T00:23:04.855Z,0.00
2019-03-28T00:24:04.762Z,0.00
2019-03-28T00:25:04.675Z,0.00
2019-03-28T00:26:04.603Z,0.00
2019-03-28T00:27:04.515Z,0.00
2019-03-28T00:28:04.433Z,0.00
2019-03-28T00:29:04.351Z,0.00
2019-03-28T00:30:04.262Z,0.00
2019-03-28T00:31:04.179Z,0.00
2019-03-28T00:32:04.101Z,0.00
2019-03-28T00:33:04.013Z,0.00
2019-03-28T00:34:03.927Z,0.00
2019-03-28T00:35:03.840Z,0.00
2019-03-28T00:36:03.763Z,0.00
2019-03-28T00:37:03.678Z,0.00
2019-03-28T00:38:03.589Z,0.00
2019-03-28T00:39:03.514Z,0.00
2019-03-28T00:40:03.431Z,0.00
2019-03-28T00:41:03.340Z,0.00
2019-03-28T00:42:03.264Z,0.00
2019-03-28T00:43:03.179Z,0.00
2019-03-28T00:44:03.090Z,0.00
2019-03-28T00:45:03.014Z,0.00
2019-03-28T00:46:02.931Z,0.00
2019-03-28T00:47:02.842Z,0.00
2019-03-28T00:48:02.758Z,0.00
2019-03-28T00:49:02.680Z,0.00
2019-03-28T00:50:02.595Z,0.00
2019-03-28T00:51:02.513Z,0.00
2019-03-28T00:52:02.429Z,0.00
2019-03-28T00:53:02.340Z,0.00
2019-03-28T00:54:02.254Z,0.00
2019-03-28T00:55:02.181Z,0.00
2019-03-28T00:56:02.298Z,0.00
2019-03-28T00:57:02.004Z,0.00
2019-03-28T00:58:01.917Z,0.00
2019-03-28T00:59:01.841Z,0.00
2019-03-28T01:00:01.755Z,0.00
2019-03-28T01:01:01.666Z,0.00
2019-03-28T01:02:01.591Z,0.00
2019-03-28T01:03:01.505Z,0.00
2019-03-28T01:04:02.236Z,0.00
2019-03-28T01:05:01.342Z,0.00
2019-03-28T01:06:01.261Z,0.00
2019-03-28T01:07:01.168Z,0.00
2019-03-28T01:08:01.084Z,0.00
2019-03-28T01:09:03.960Z,0.00
2019-03-28T01:10:00.931Z,0.00
2019-03-28T01:11:00.830Z,0.00
2019-03-28T01:12:00.757Z,0.00
2019-03-28T01:13:00.668Z,0.00
2019-03-28T01:14:00.581Z,0.00
2019-03-28T01:15:00.530Z,0.00
2019-03-28T01:16:00.418Z,0.00
2019-03-28T01:17:00.331Z,0.00
2019-03-28T01:18:00.256Z,0.00
2019-03-28T01:19:00.169Z,0.00
2019-03-28T01:20:00.197Z,0.00
2019-03-28T01:20:59.995Z,0.00
2019-03-28T01:21:59.921Z,0.00
2019-03-28T01:22:59.832Z,0.00
2019-03-28T01:23:59.756Z,0.00
2019-03-28T01:24:59.670Z,0.00
2019-03-28T01:25:59.582Z,0.00
2019-03-28T01:26:59.494Z,0.00
2019-03-28T01:27:59.424Z,0.00
2019-03-28T01:28:59.331Z,0.00
2019-03-28T01:29:59.245Z,0.00
2019-03-28T01:30:59.158Z,0.00
2019-03-28T01:31:59.083Z,0.00
2019-03-28T01:32:58.996Z,0.00
2019-03-28T01:33:58.908Z,0.00
2019-03-28T01:34:58.839Z,0.00
2019-03-28T01:35:58.745Z,0.00
2019-03-28T01:36:58.660Z,0.00
2019-03-28T01:37:58.584Z,0.00
2019-03-28T01:38:58.509Z,0.00
2019-03-28T01:39:58.410Z,0.00
2019-03-28T01:40:58.333Z,0.00
2019-03-28T01:41:58.246Z,0.00
2019-03-28T01:42:58.159Z,0.00
2019-03-28T01:43:58.076Z,0.00
2019-03-28T01:44:58.009Z,0.00
2019-03-28T01:45:57.909Z,0.00
2019-03-28T01:46:57.822Z,0.00
2019-03-28T01:47:57.747Z,0.00
2019-03-28T01:48:58.344Z,0.00
2019-03-28T01:49:57.588Z,0.00
2019-03-28T01:50:57.497Z,0.00
2019-03-28T01:51:57.410Z,0.00
2019-03-28T01:52:57.324Z,0.00
2019-03-28T01:53:57.237Z,0.00
2019-03-28T01:54:57.160Z,0.00
2019-03-28T01:55:57.073Z,0.00
2019-03-28T01:57:09.913Z,0.00
2019-03-28T01:57:56.910Z,0.00
2019-03-28T01:58:56.836Z,0.00
2019-03-28T01:59:56.736Z,0.00
2019-03-28T02:00:56.661Z,0.00
2019-03-28T02:01:56.573Z,0.00
2019-03-28T02:02:56.487Z,0.00
2019-03-28T02:03:56.410Z,0.00
2019-03-28T02:04:56.323Z,0.00
2019-03-28T02:05:56.237Z,0.00
2019-03-28T02:06:56.150Z,0.00
2019-03-28T02:07:56.075Z,0.00
2019-03-28T02:08:55.988Z,0.00
2019-03-28T02:09:55.899Z,0.00
2019-03-28T02:10:55.823Z,0.00
2019-03-28T02:11:55.737Z,0.00
2019-03-28T02:12:56.203Z,0.00
2019-03-28T02:13:55.574Z,0.00
2019-03-28T02:14:55.488Z,0.00
2019-03-28T02:15:55.527Z,0.00
2019-03-28T02:16:55.316Z,0.00
2019-03-28T02:17:55.240Z,0.00
2019-03-28T02:18:55.150Z,0.00
2019-03-28T02:19:55.066Z,0.00
2019-03-28T02:20:54.988Z,0.00
2019-03-28T02:21:54.908Z,0.00
2019-03-28T02:22:54.814Z,0.00
2019-03-28T02:23:54.739Z,0.00
2019-03-28T02:24:54.650Z,0.00
2019-03-28T02:25:54.568Z,0.00
2019-03-28T02:26:54.477Z,0.00
2019-03-28T02:27:54.402Z,0.00
2019-03-28T02:28:54.314Z,0.00
2019-03-28T02:29:54.226Z,0.00
2019-03-28T02:30:54.153Z,0.00
2019-03-28T02:31:54.066Z,0.00
2019-03-28T02:32:53.992Z,0.00
2019-03-28T02:33:53.929Z,0.00
2019-03-28T02:34:53.815Z,0.00
2019-03-28T02:35:53.728Z,0.00
2019-03-28T02:36:53.674Z,0.00
2019-03-28T02:37:53.567Z,0.00
2019-03-28T02:38:53.481Z,0.00
2019-03-28T02:39:53.393Z,0.00
2019-03-28T02:40:53.316Z,0.00
2019-03-28T02:41:53.227Z,0.00
2019-03-28T02:42:53.474Z,0.00
2019-03-28T02:43:53.067Z,0.00
2019-03-28T02:44:52.978Z,0.00
2019-03-28T02:45:52.891Z,0.00
2019-03-28T02:46:52.808Z,0.00
2019-03-28T02:47:52.732Z,0.00
2019-03-28T02:48:53.779Z,0.00
2019-03-28T02:49:52.557Z,0.00
2019-03-28T02:50:52.487Z,0.00
2019-03-28T02:51:52.396Z,0.00
2019-03-28T02:52:52.305Z,0.00
2019-03-28T02:53:52.233Z,0.00
2019-03-28T02:54:52.144Z,0.00
2019-03-28T02:55:52.056Z,0.00
2019-03-28T02:56:51.982Z,0.00
2019-03-28T02:57:51.897Z,0.00
2019-03-28T02:58:51.805Z,0.00
2019-03-28T02:59:51.718Z,0.00
2019-03-28T03:00:51.644Z,0.00
2019-03-28T03:01:51.554Z,0.00
2019-03-28T03:02:51.468Z,0.00
2019-03-28T03:03:51.392Z,0.00
2019-03-28T03:04:51.308Z,0.00
2019-03-28T03:05:51.221Z,0.00
2019-03-28T03:06:51.133Z,0.00
2019-03-28T03:07:51.055Z,0.00
2019-03-28T03:08:50.968Z,0.00
2019-03-28T03:09:51.530Z,0.00
2019-03-28T03:10:50.808Z,0.00
2019-03-28T03:11:50.728Z,0.00
2019-03-28T03:12:50.652Z,0.00
2019-03-28T03:13:50.557Z,0.00
2019-03-28T03:14:50.470Z,0.00
2019-03-28T03:15:50.382Z,0.00
2019-03-28T03:16:50.306Z,0.00
2019-03-28T03:17:50.221Z,0.00
2019-03-28T03:18:50.133Z,0.00
2019-03-28T03:19:50.073Z,0.00
2019-03-28T03:20:49.970Z,0.00
2019-03-28T03:21:49.882Z,0.00
2019-03-28T03:22:49.796Z,0.00
2019-03-28T03:23:49.720Z,0.00
2019-03-28T03:24:49.648Z,0.00
2019-03-28T03:25:49.546Z,0.00
2019-03-28T03:26:49.460Z,0.00
2019-03-28T03:27:57.584Z,0.00
2019-03-28T03:28:49.296Z,0.00
2019-03-28T03:29:49.208Z,0.00
2019-03-28T03:30:49.140Z,0.00
2019-03-28T03:31:49.047Z,0.00
2019-03-28T03:32:48.966Z,0.00
2019-03-28T03:33:48.885Z,0.00
2019-03-28T03:34:48.797Z,0.00
2019-03-28T03:35:48.709Z,0.00
2019-03-28T03:36:48.634Z,0.00
2019-03-28T03:37:48.548Z,0.00
2019-03-28T03:38:48.472Z,0.00
2019-03-28T03:39:48.372Z,0.00
2019-03-28T03:40:48.297Z,0.00
2019-03-28T03:41:48.213Z,0.00
2019-03-28T03:42:48.143Z,0.00
2019-03-28T03:43:48.051Z,0.00
2019-03-28T03:44:47.967Z,0.00
2019-03-28T03:45:47.873Z,0.00
2019-03-28T03:46:47.788Z,0.00
2019-03-28T03:47:47.710Z,0.00
2019-03-28T03:48:47.625Z,0.00
2019-03-28T03:49:47.537Z,0.00
2019-03-28T03:50:48.681Z,0.00
2019-03-28T03:51:47.374Z,0.00
2019-03-28T03:52:47.287Z,0.00
2019-03-28T03:53:47.224Z,0.00
2019-03-28T03:54:47.124Z,0.00
2019-03-28T03:55:47.036Z,0.00
2019-03-28T03:56:46.965Z,0.00
2019-03-28T03:57:46.875Z,0.00
2019-03-28T03:58:46.786Z,0.00
2019-03-28T03:59:46.703Z,0.00
2019-03-28T04:00:46.625Z,0.00
2019-03-28T04:01:46.539Z,0.00
2019-03-28T04:02:46.451Z,0.00
2019-03-28T04:03:46.375Z,0.00
2019-03-28T04:04:46.926Z,0.00
2019-03-28T04:05:46.202Z,0.00
2019-03-28T04:06:46.125Z,0.00
2019-03-28T04:07:46.053Z,0.00
2019-03-28T04:08:45.952Z,0.00
2019-03-28T04:09:45.875Z,0.00
2019-03-28T04:10:45.793Z,0.00
2019-03-28T04:11:45.701Z,0.00
2019-03-28T04:12:45.626Z,0.00
2019-03-28T04:13:45.537Z,0.00
2019-03-28T04:14:45.456Z,0.00
2019-03-28T04:15:45.364Z,0.00
2019-03-28T04:16:45.288Z,0.00
2019-03-28T04:17:45.203Z,0.00
2019-03-28T04:18:45.122Z,0.00
2019-03-28T04:19:45.038Z,0.00
2019-03-28T04:20:44.957Z,0.00
2019-03-28T04:21:44.878Z,0.00
2019-03-28T04:22:44.779Z,0.00
2019-03-28T04:23:44.702Z,0.00
2019-03-28T04:24:44.614Z,0.00
2019-03-28T04:25:44.528Z,0.00
2019-03-28T04:26:44.453Z,0.00
2019-03-28T04:27:44.366Z,4.00
2019-03-28T04:28:44.279Z,4.00
2019-03-28T04:29:44.190Z,4.00
2019-03-28T04:30:44.115Z,0.00
2019-03-28T04:31:44.036Z,4.00
2019-03-28T04:32:43.942Z,8.00
2019-03-28T04:33:43.866Z,4.00
2019-03-28T04:34:43.782Z,4.00
2019-03-28T04:35:43.693Z,4.00
2019-03-28T04:36:43.623Z,8.00
2019-03-28T04:37:43.530Z,8.00
2019-03-28T04:38:43.444Z,8.00
2019-03-28T04:39:43.355Z,12.00
2019-03-28T04:40:43.279Z,16.00
2019-03-28T04:41:43.192Z,12.00
2019-03-28T04:42:45.631Z,16.00
2019-03-28T04:43:43.037Z,16.00
2019-03-28T04:44:42.942Z,20.00
2019-03-28T04:45:42.862Z,20.00
2019-03-28T04:46:42.773Z,24.00
2019-03-28T04:47:42.691Z,24.00
2019-03-28T04:48:42.616Z,32.00
2019-03-28T04:49:42.518Z,32.00
2019-03-28T04:50:42.470Z,36.00
2019-03-28T04:51:42.373Z,44.00
2019-03-28T04:52:42.285Z,40.00
2019-03-28T04:53:42.192Z,40.00
2019-03-28T04:54:42.106Z,48.00
2019-03-28T04:55:42.017Z,52.00
2019-03-28T04:56:41.963Z,64.00
2019-03-28T04:57:41.878Z,72.00
2019-03-28T04:58:44.730Z,76.00
2019-03-28T04:59:41.681Z,104.00
2019-03-28T05:00:41.606Z,136.00
2019-03-28T05:01:41.520Z,148.00
2019-03-28T05:02:41.437Z,152.00
2019-03-28T05:03:41.362Z,160.00
2019-03-28T05:04:41.269Z,164.00
2019-03-28T05:05:41.183Z,184.00
2019-03-28T05:06:41.096Z,196.00
2019-03-28T05:07:41.019Z,200.00
2019-03-28T05:08:40.932Z,196.00
2019-03-28T05:09:40.848Z,192.00
2019-03-28T05:10:41.578Z,212.00
2019-03-28T05:11:40.683Z,216.00
2019-03-28T05:12:40.596Z,240.00
2019-03-28T05:13:40.508Z,248.00
2019-03-28T05:14:40.573Z,244.00
2019-03-28T05:15:40.347Z,240.00
2019-03-28T05:16:40.259Z,268.00
2019-03-28T05:17:40.492Z,284.00
2019-03-28T05:18:40.095Z,256.00
2019-03-28T05:19:40.009Z,248.00
2019-03-28T05:20:40.444Z,256.00
2019-03-28T05:21:39.845Z,284.00
2019-03-28T05:22:39.758Z,272.00
2019-03-28T05:23:40.481Z,280.00
2019-03-28T05:24:39.610Z,276.00
2019-03-28T05:25:39.511Z,268.00
2019-03-28T05:26:39.433Z,328.00
2019-03-28T05:27:39.346Z,404.00
2019-03-28T05:28:39.263Z,392.00
2019-03-28T05:29:39.171Z,424.00
2019-03-28T05:30:39.097Z,448.00
2019-03-28T05:31:39.009Z,420.00
2019-03-28T05:32:38.921Z,440.00
2019-03-28T05:33:38.851Z,444.00
2019-03-28T05:34:38.759Z,496.00
2019-03-28T05:35:38.685Z,512.00
2019-03-28T05:36:38.586Z,448.00
2019-03-28T05:37:38.513Z,492.00
2019-03-28T05:38:38.423Z,548.00
2019-03-28T05:39:38.335Z,528.00
2019-03-28T05:40:38.271Z,552.00
2019-03-28T05:41:38.176Z,584.00
2019-03-28T05:42:38.086Z,644.00
2019-03-28T05:43:38.012Z,648.00
2019-03-28T05:44:37.924Z,668.00
2019-03-28T05:45:37.835Z,644.00
2019-03-28T05:46:38.355Z,676.00
2019-03-28T05:47:37.721Z,788.00
2019-03-28T05:48:37.590Z,772.00
2019-03-28T05:49:37.498Z,796.00
2019-03-28T05:50:37.428Z,760.00
2019-03-28T05:51:37.336Z,824.00
2019-03-28T05:52:37.249Z,840.00
2019-03-28T05:53:37.177Z,1020.00
2019-03-28T05:54:37.088Z,968.00
2019-03-28T05:55:36.999Z,984.00
2019-03-28T05:56:36.924Z,1112.00
2019-03-28T05:57:36.839Z,1048.00
2019-03-28T05:58:36.750Z,1112.00
2019-03-28T05:59:36.675Z,1036.00
2019-03-28T06:00:38.881Z,1060.00
2019-03-28T06:01:36.501Z,980.00
2019-03-28T06:02:36.413Z,1144.00
2019-03-28T06:03:36.343Z,1184.00
2019-03-28T06:04:36.250Z,1104.00
2019-03-28T06:05:36.163Z,1132.00
2019-03-28T06:06:36.088Z,1248.00
2019-03-28T06:07:36.340Z,1204.00
2019-03-28T06:08:35.913Z,1236.00
2019-03-28T06:09:35.827Z,1236.00
2019-03-28T06:10:36.412Z,1284.00
2019-03-28T06:11:35.664Z,1488.00
2019-03-28T06:12:35.577Z,1340.00
2019-03-28T06:13:35.501Z,1356.00
2019-03-28T06:14:35.415Z,1272.00
2019-03-28T06:15:35.327Z,1376.00
2019-03-28T06:16:35.253Z,1340.00
2019-03-28T06:17:35.164Z,1216.00
2019-03-28T06:18:35.077Z,1228.00
2019-03-28T06:19:35.002Z,1424.00
2019-03-28T06:20:34.916Z,1600.00
2019-03-28T06:21:34.828Z,1352.00
2019-03-28T06:22:34.755Z,1360.00
2019-03-28T06:23:34.668Z,1348.00
2019-03-28T06:24:34.577Z,1492.00
2019-03-28T06:25:34.502Z,1508.00
2019-03-28T06:26:34.416Z,1596.00
2019-03-28T06:27:34.339Z,1732.00
2019-03-28T06:28:34.252Z,1748.00
2019-03-28T06:29:34.174Z,1700.00
2019-03-28T06:30:34.079Z,1636.00
2019-03-28T06:31:34.081Z,1472.00
2019-03-28T06:32:42.909Z,1436.00
2019-03-28T06:33:34.436Z,1668.00
2019-03-28T06:34:33.741Z,1828.00
2019-03-28T06:35:33.666Z,1684.00
2019-03-28T06:36:33.585Z,1728.00
2019-03-28T06:37:33.491Z,1816.00
2019-03-28T06:38:33.419Z,1724.00
2019-03-28T06:39:36.164Z,1748.00
2019-03-28T06:40:33.242Z,1836.00
2019-03-28T06:41:33.156Z,2016.00
2019-03-28T06:42:33.080Z,2376.00
2019-03-28T06:43:32.993Z,2412.00
2019-03-28T06:44:32.918Z,2492.00
2019-03-28T06:45:32.829Z,2804.00
2019-03-28T06:46:32.743Z,2740.00
2019-03-28T06:47:32.657Z,2332.00
2019-03-28T06:48:32.581Z,2716.00
2019-03-28T06:49:32.492Z,2660.00
2019-03-28T06:50:32.406Z,2644.00
2019-03-28T06:51:32.331Z,2336.00
2019-03-28T06:52:32.243Z,2376.00
2019-03-28T06:53:32.155Z,2712.00
2019-03-28T06:54:32.081Z,2528.00
2019-03-28T06:55:31.993Z,2804.00
2019-03-28T06:56:31.906Z,2860.00
2019-03-28T06:57:31.831Z,2984.00
2019-03-28T06:58:31.822Z,3328.00
2019-03-28T06:59:37.407Z,2764.00
2019-03-28T07:00:31.594Z,2464.00
2019-03-28T07:01:31.494Z,2676.00
2019-03-28T07:02:31.407Z,2732.00
2019-03-28T07:03:31.332Z,2804.00
2019-03-28T07:04:31.244Z,2564.00
2019-03-28T07:05:31.156Z,2336.00
2019-03-28T07:06:31.094Z,2448.00
2019-03-28T07:07:31.027Z,2496.00
2019-03-28T07:08:30.908Z,2212.00
2019-03-28T07:09:30.834Z,2056.00
2019-03-28T07:10:30.745Z,2248.00
2019-03-28T07:11:30.657Z,2108.00
2019-03-28T07:12:30.582Z,2212.00
2019-03-28T07:13:30.495Z,2604.00
2019-03-28T07:14:30.413Z,2196.00
2019-03-28T07:15:30.332Z,2356.00
2019-03-28T07:16:30.246Z,2500.00
2019-03-28T07:17:30.157Z,3064.00
2019-03-28T07:18:30.089Z,3400.00
2019-03-28T07:19:29.996Z,3084.00
2019-03-28T07:20:29.909Z,2964.00
2019-03-28T07:21:29.846Z,3144.00
2019-03-28T07:22:29.747Z,3080.00
2019-03-28T07:23:29.659Z,2764.00
2019-03-28T07:24:29.583Z,3060.00
2019-03-28T07:25:29.497Z,2508.00
2019-03-28T07:26:29.408Z,2936.00
2019-03-28T07:27:29.334Z,2776.00
2019-03-28T07:28:29.248Z,2728.00
2019-03-28T07:29:29.160Z,2796.00
2019-03-28T07:30:29.084Z,4320.00
2019-03-28T07:31:28.999Z,2964.00
2019-03-28T07:32:28.942Z,3536.00
2019-03-28T07:33:28.839Z,3420.00
2019-03-28T07:34:28.748Z,2968.00
2019-03-28T07:35:28.672Z,3576.00
2019-03-28T07:36:28.585Z,3392.00
2019-03-28T07:37:28.501Z,3472.00
2019-03-28T07:38:28.411Z,4804.00
2019-03-28T07:39:28.337Z,4920.00
2019-03-28T07:40:28.248Z,3764.00
2019-03-28T07:41:28.173Z,3868.00
2019-03-28T07:42:28.085Z,3244.00
2019-03-28T07:43:28.007Z,3528.00
2019-03-28T07:44:28.569Z,3572.00
2019-03-28T07:45:27.836Z,3352.00
2019-03-28T07:46:27.749Z,3232.00
2019-03-28T07:47:27.674Z,3092.00
2019-03-28T07:48:27.588Z,3612.00
2019-03-28T07:49:27.499Z,3576.00
2019-03-28T07:50:27.424Z,3444.00
2019-03-28T07:51:27.622Z,3428.00
2019-03-28T07:52:27.625Z,3240.00
2019-03-28T07:53:27.178Z,3652.00
2019-03-28T07:54:27.086Z,3824.00
2019-03-28T07:55:27.014Z,4260.00
2019-03-28T07:56:26.925Z,3708.00
2019-03-28T07:57:26.837Z,4256.00
2019-03-28T07:58:26.762Z,4016.00
2019-03-28T07:59:26.676Z,3976.00
2019-03-28T08:00:26.588Z,4164.00
2019-03-28T08:01:26.525Z,4140.00
2019-03-28T08:02:26.427Z,3876.00
2019-03-28T08:03:26.338Z,3748.00
2019-03-28T08:04:26.282Z,4116.00
2019-03-28T08:05:26.177Z,5704.00
2019-03-28T08:06:26.088Z,4104.00
2019-03-28T08:07:26.015Z,4708.00
2019-03-28T08:08:38.023Z,4872.00
2019-03-28T08:09:35.988Z,5344.00
2019-03-28T08:10:25.764Z,5088.00
2019-03-28T08:11:25.778Z,4600.00
2019-03-28T08:12:25.602Z,5052.00
2019-03-28T08:13:25.513Z,5676.00
2019-03-28T08:14:25.428Z,5948.00
2019-03-28T08:15:25.352Z,4980.00
2019-03-28T08:16:27.361Z,4200.00
2019-03-28T08:17:25.177Z,4244.00
2019-03-28T08:18:25.103Z,6396.00
2019-03-28T08:19:25.024Z,4192.00
2019-03-28T08:20:24.939Z,5148.00
2019-03-28T08:21:24.859Z,5564.00
2019-03-28T08:22:24.764Z,6896.00
2019-03-28T08:23:24.707Z,6436.00
2019-03-28T08:24:24.603Z,6800.00
2019-03-28T08:25:24.514Z,4844.00
2019-03-28T08:26:24.439Z,7456.00
2019-03-28T08:27:24.353Z,8184.00
2019-03-28T08:28:24.267Z,7900.00
2019-03-28T08:29:24.191Z,7128.00
2019-03-28T08:30:24.104Z,5984.00
2019-03-28T08:31:24.017Z,5988.00
2019-03-28T08:32:23.955Z,6056.00
2019-03-28T08:33:23.929Z,5748.00
2019-03-28T08:34:23.785Z,4968.00
2019-03-28T08:35:23.690Z,4640.00
2019-03-28T08:36:23.636Z,4400.00
2019-03-28T08:37:23.530Z,4968.00
2019-03-28T08:38:23.442Z,4400.00
2019-03-28T08:39:23.367Z,5224.00
2019-03-28T08:40:23.556Z,5068.00
2019-03-28T08:41:23.193Z,6712.00
2019-03-28T08:42:23.119Z,5144.00
2019-03-28T08:43:23.030Z,5168.00
2019-03-28T08:44:22.970Z,5152.00
2019-03-28T08:45:22.867Z,5152.00
2019-03-28T08:46:22.781Z,5400.00
2019-03-28T08:47:22.707Z,5036.00
2019-03-28T08:48:22.617Z,5812.00
2019-03-28T08:49:22.542Z,5084.00
2019-03-28T08:50:22.456Z,4776.00
2019-03-28T08:51:22.381Z,5296.00
2019-03-28T08:52:22.293Z,4800.00
2019-03-28T08:53:22.207Z,4896.00
2019-03-28T08:54:22.118Z,5232.00
2019-03-28T08:55:22.043Z,4816.00
2019-03-28T08:56:21.959Z,4248.00
2019-03-28T08:57:21.868Z,4200.00
2019-03-28T08:58:21.807Z,3804.00
2019-03-28T08:59:21.707Z,4444.00
2019-03-28T09:00:32.232Z,4364.00
2019-03-28T09:01:21.544Z,4084.00
2019-03-28T09:02:21.457Z,4468.00
2019-03-28T09:03:21.383Z,4724.00
2019-03-28T09:04:21.295Z,3692.00
2019-03-28T09:05:21.208Z,4024.00
2019-03-28T09:06:21.133Z,4236.00
2019-03-28T09:07:21.045Z,4820.00
2019-03-28T09:08:20.969Z,3912.00
2019-03-28T09:09:21.293Z,4532.00
2019-03-28T09:10:20.795Z,4580.00
2019-03-28T09:11:21.549Z,4440.00
2019-03-28T09:12:20.634Z,3796.00
2019-03-28T09:13:20.547Z,4108.00
2019-03-28T09:14:20.471Z,3928.00
2019-03-28T09:15:20.383Z,5068.00
2019-03-28T09:16:20.308Z,4840.00
2019-03-28T09:17:20.224Z,4448.00
2019-03-28T09:18:20.136Z,4324.00
2019-03-28T09:19:20.060Z,5752.00
2019-03-28T09:20:19.970Z,9256.00
2019-03-28T09:21:19.896Z,8472.00
2019-03-28T09:22:19.809Z,6816.00
2019-03-28T09:23:19.723Z,7044.00
2019-03-28T09:24:19.659Z,8876.00
2019-03-28T09:25:19.560Z,6464.00
2019-03-28T09:26:19.474Z,5744.00
2019-03-28T09:27:19.397Z,8584.00
2019-03-28T09:28:19.321Z,6144.00
2019-03-28T09:29:19.235Z,6748.00
2019-03-28T09:30:19.148Z,6160.00
2019-03-28T09:31:20.146Z,6872.00
2019-03-28T09:32:18.990Z,5268.00
2019-03-28T09:33:18.897Z,5324.00
2019-03-28T09:34:18.835Z,5320.00
2019-03-28T09:35:18.737Z,4684.00
2019-03-28T09:36:18.656Z,4664.00
2019-03-28T09:37:18.573Z,4268.00
2019-03-28T09:38:18.488Z,5424.00
2019-03-28T09:39:18.411Z,5708.00
2019-03-28T09:40:18.323Z,5844.00
2019-03-28T09:41:18.320Z,5316.00
2019-03-28T09:42:18.163Z,5756.00
2019-03-28T09:43:18.074Z,5628.00
2019-03-28T09:44:17.999Z,4620.00
2019-03-28T09:45:17.912Z,4488.00
2019-03-28T09:46:17.827Z,4500.00
2019-03-28T09:47:17.753Z,4160.00
2019-03-28T09:48:17.662Z,4180.00
2019-03-28T09:49:17.578Z,5744.00
2019-03-28T09:50:17.504Z,7804.00
2019-03-28T09:51:17.413Z,7180.00
2019-03-28T09:52:17.339Z,4424.00
2019-03-28T09:53:17.250Z,5308.00
2019-03-28T09:54:17.174Z,4652.00
2019-03-28T09:55:18.882Z,4720.00
2019-03-28T09:56:17.001Z,4040.00
2019-03-28T09:57:16.925Z,3760.00
2019-03-28T09:58:16.838Z,3492.00
2019-03-28T09:59:16.752Z,3904.00
2019-03-28T10:00:16.677Z,4532.00
2019-03-28T10:01:16.590Z,4524.00
2019-03-28T10:02:16.518Z,6256.00
2019-03-28T10:03:16.438Z,5224.00
2019-03-28T10:04:16.351Z,5540.00
2019-03-28T10:05:16.266Z,6360.00
2019-03-28T10:06:16.177Z,6544.00
2019-03-28T10:07:16.101Z,4908.00
2019-03-28T10:08:16.014Z,6004.00
2019-03-28T10:09:15.927Z,6176.00
2019-03-28T10:10:15.851Z,4584.00
2019-03-28T10:11:15.765Z,5076.00
2019-03-28T10:12:15.690Z,5808.00
2019-03-28T10:13:15.604Z,5668.00
2019-03-28T10:14:15.525Z,5688.00
2019-03-28T10:15:15.440Z,7992.00
2019-03-28T10:16:15.353Z,7268.00
2019-03-28T10:17:15.290Z,5124.00
2019-03-28T10:18:15.192Z,5936.00
2019-03-28T10:19:15.103Z,5140.00
2019-03-28T10:20:15.028Z,5060.00
2019-03-28T10:21:14.941Z,5540.00
2019-03-28T10:22:14.866Z,5644.00
2019-03-28T10:23:14.791Z,5744.00
2019-03-28T10:24:14.705Z,5932.00
2019-03-28T10:25:14.774Z,4900.00
2019-03-28T10:26:14.528Z,4060.00
2019-03-28T10:27:14.454Z,5068.00
2019-03-28T10:28:14.368Z,6028.00
2019-03-28T10:29:14.280Z,5568.00
2019-03-28T10:30:14.208Z,6788.00
2019-03-28T10:31:16.788Z,7288.00
2019-03-28T10:32:14.044Z,6628.00
2019-03-28T10:33:13.957Z,5540.00
2019-03-28T10:34:13.868Z,7192.00
2019-03-28T10:35:13.793Z,7156.00
2019-03-28T10:36:13.706Z,7316.00
2019-03-28T10:37:13.632Z,7324.00
2019-03-28T10:38:13.543Z,5328.00
2019-03-28T10:39:13.461Z,4984.00
2019-03-28T10:40:13.381Z,5556.00
2019-03-28T10:41:13.293Z,6628.00
2019-03-28T10:42:13.219Z,8668.00
2019-03-28T10:43:13.133Z,8676.00
2019-03-28T10:44:13.044Z,9872.00
2019-03-28T10:45:12.971Z,10444.00
2019-03-28T10:46:12.881Z,10132.00
2019-03-28T10:47:12.808Z,8820.00
2019-03-28T10:48:12.718Z,9680.00
2019-03-28T10:49:12.632Z,7080.00
2019-03-28T10:50:12.556Z,7560.00
2019-03-28T10:51:12.479Z,8052.00
2019-03-28T10:52:12.395Z,8892.00
2019-03-28T10:53:12.307Z,10232.00
2019-03-28T10:54:20.060Z,10420.00
2019-03-28T10:55:12.146Z,8308.00
2019-03-28T10:56:21.579Z,8784.00
2019-03-28T10:57:15.361Z,8496.00
2019-03-28T10:58:18.892Z,7492.00
2019-03-28T10:59:22.728Z,7084.00
2019-03-28T11:00:23.417Z,5740.00
2019-03-28T11:01:11.676Z,6048.00
2019-03-28T11:02:12.575Z,7424.00
2019-03-28T11:03:11.488Z,7972.00
2019-03-28T11:04:11.408Z,8168.00
2019-03-28T11:05:11.321Z,10704.00
2019-03-28T11:06:11.247Z,7944.00
2019-03-28T11:07:11.159Z,4976.00
2019-03-28T11:08:11.083Z,7288.00
2019-03-28T11:09:10.998Z,8516.00
2019-03-28T11:10:10.922Z,7288.00
2019-03-28T11:11:10.835Z,6292.00
2019-03-28T11:12:10.758Z,6256.00
2019-03-28T11:13:10.672Z,6996.00
2019-03-28T11:14:10.597Z,7332.00
2019-03-28T11:15:10.590Z,5836.00
2019-03-28T11:16:10.423Z,5388.00
2019-03-28T11:17:10.347Z,5896.00
2019-03-28T11:18:10.260Z,5692.00
2019-03-28T11:19:10.187Z,5632.00
2019-03-28T11:20:10.098Z,4512.00
2019-03-28T11:21:10.009Z,3932.00
2019-03-28T11:22:09.934Z,4048.00
2019-03-28T11:23:09.850Z,4680.00
2019-03-28T11:24:09.774Z,4436.00
2019-03-28T11:25:09.687Z,5000.00
2019-03-28T11:26:09.612Z,5908.00
2019-03-28T11:27:09.524Z,5640.00
2019-03-28T11:28:09.483Z,6892.00
2019-03-28T11:29:09.361Z,8336.00
2019-03-28T11:30:09.274Z,8844.00
2019-03-28T11:31:09.198Z,7552.00
2019-03-28T11:32:09.111Z,7380.00
2019-03-28T11:33:09.039Z,7660.00
2019-03-28T11:34:08.949Z,7140.00
2019-03-28T11:35:08.862Z,6380.00
2019-03-28T11:36:08.787Z,7064.00
2019-03-28T11:37:14.918Z,7940.00
2019-03-28T11:38:09.750Z,6896.00
2019-03-28T11:39:08.539Z,6448.00
2019-03-28T11:40:09.290Z,6220.00
2019-03-28T11:41:08.746Z,5288.00
2019-03-28T11:42:08.343Z,4620.00
2019-03-28T11:43:08.212Z,4404.00
2019-03-28T11:44:08.138Z,4396.00
2019-03-28T11:45:09.504Z,4832.00
2019-03-28T11:46:07.975Z,6308.00
2019-03-28T11:47:07.890Z,7780.00
2019-03-28T11:48:07.808Z,9076.00
2019-03-28T11:49:07.724Z,8888.00
2019-03-28T11:50:07.638Z,7196.00
2019-03-28T11:51:07.551Z,6668.00
2019-03-28T11:52:07.501Z,7048.00
2019-03-28T11:53:07.389Z,6636.00
2019-03-28T11:54:07.315Z,6884.00
2019-03-28T11:55:07.227Z,6128.00
2019-03-28T11:56:07.140Z,5576.00
2019-03-28T11:57:07.066Z,6276.00
2019-03-28T11:58:06.977Z,5856.00
2019-03-28T11:59:06.901Z,5136.00
2019-03-28T12:00:06.814Z,3896.00
2019-03-28T12:01:06.740Z,3212.00
2019-03-28T12:02:19.097Z,2980.00
2019-03-28T12:03:06.577Z,2828.00
2019-03-28T12:04:06.490Z,2972.00
2019-03-28T12:05:06.403Z,3064.00
2019-03-28T12:06:06.333Z,3112.00
2019-03-28T12:07:06.239Z,3632.00
2019-03-28T12:08:06.165Z,3468.00
2019-03-28T12:09:06.152Z,3640.00
2019-03-28T12:10:06.005Z,3756.00
2019-03-28T12:11:05.928Z,3708.00
2019-03-28T12:12:05.840Z,3716.00
2019-03-28T12:13:05.758Z,3524.00
2019-03-28T12:14:05.666Z,3616.00
2019-03-28T12:15:05.591Z,3456.00
2019-03-28T12:16:05.505Z,3536.00
2019-03-28T12:17:05.429Z,3620.00
2019-03-28T12:18:05.342Z,3492.00
2019-03-28T12:19:05.266Z,3924.00
2019-03-28T12:20:05.185Z,3696.00
2019-03-28T12:21:05.092Z,3556.00
2019-03-28T12:22:05.027Z,3480.00
2019-03-28T12:23:04.930Z,3596.00
2019-03-28T12:24:04.856Z,3516.00
2019-03-28T12:25:04.767Z,3332.00
2019-03-28T12:26:04.681Z,3624.00
2019-03-28T12:27:04.605Z,3832.00
2019-03-28T12:28:04.527Z,3536.00
2019-03-28T12:29:05.774Z,3468.00
2019-03-28T12:30:04.357Z,4056.00
2019-03-28T12:31:04.283Z,4288.00
2019-03-28T12:32:13.943Z,4416.00
2019-03-28T12:33:04.106Z,4516.00